createdAt,value
2023-07-10T00:01:13.308Z,23.70
2023-07-10T00:03:41.752Z,23.60
2023-07-10T00:06:13.760Z,23.60
2023-07-10T00:08:42.932Z,23.60
2023-07-10T00:11:27.032Z,23.60
2023-07-10T00:13:55.609Z,23.60
2023-07-10T00:16:23.478Z,23.50
2023-07-10T00:18:51.387Z,23.50
2023-07-10T00:21:19.053Z,23.50
2023-07-10T00:23:47.096Z,23.50
2023-07-10T00:26:26.081Z,23.40
2023-07-10T00:28:55.750Z,23.40
2023-07-10T00:31:26.303Z,23.40
2023-07-10T00:33:55.252Z,23.40
2023-07-10T00:36:29.433Z,23.30
2023-07-10T00:38:57.858Z,23.30
2023-07-10T00:41:29.244Z,23.30
2023-07-10T00:44:01.483Z,23.30
2023-07-10T00:46:41.073Z,23.30
2023-07-10T00:49:20.297Z,23.30
2023-07-10T00:51:53.403Z,23.20
2023-07-10T00:54:36.225Z,23.20
2023-07-10T00:57:06.180Z,23.30
2023-07-10T00:59:39.555Z,23.20
2023-07-10T01:02:09.902Z,23.30
2023-07-10T01:04:43.483Z,23.20
2023-07-10T01:07:17.570Z,23.20
2023-07-10T01:09:50.876Z,23.20
2023-07-10T01:12:18.788Z,23.10
2023-07-10T01:14:45.904Z,23.10
2023-07-10T01:17:13.077Z,23.10
2023-07-10T01:19:44.829Z,23.00
2023-07-10T01:22:12.009Z,23.00
2023-07-10T01:24:39.526Z,22.90
2023-07-10T01:27:12.949Z,22.90
2023-07-10T01:29:46.112Z,22.80
2023-07-10T01:32:17.282Z,22.80
2023-07-10T01:34:57.753Z,22.70
2023-07-10T01:37:24.963Z,22.70
2023-07-10T01:39:53.956Z,22.60
2023-07-10T01:42:21.767Z,22.60
2023-07-10T01:44:51.334Z,22.60
2023-07-10T01:47:18.544Z,22.60
2023-07-10T01:49:59.924Z,22.60
2023-07-10T01:52:27.061Z,22.60
2023-07-10T01:54:56.723Z,22.60
2023-07-10T01:57:25.815Z,22.60
2023-07-10T01:59:54.030Z,22.60
2023-07-10T02:02:21.537Z,22.50
2023-07-10T02:04:48.836Z,22.50
2023-07-10T02:07:16.075Z,22.50
2023-07-10T02:09:43.202Z,22.50
2023-07-10T02:12:10.645Z,22.40
2023-07-10T02:14:37.827Z,22.40
2023-07-10T02:17:05.439Z,22.40
2023-07-10T02:19:32.840Z,22.40
2023-07-10T02:22:00.032Z,22.40
2023-07-10T02:24:27.204Z,22.30
2023-07-10T02:26:54.266Z,22.30
2023-07-10T02:29:21.476Z,22.30
2023-07-10T02:31:51.642Z,22.30
2023-07-10T02:34:18.992Z,22.20
2023-07-10T02:36:46.185Z,22.20
2023-07-10T02:39:13.483Z,22.20
2023-07-10T02:41:40.567Z,22.10
2023-07-10T02:44:07.693Z,22.10
2023-07-10T02:46:35.085Z,22.10
2023-07-10T02:49:02.248Z,22.10
2023-07-10T02:51:29.449Z,22.10
2023-07-10T02:53:56.674Z,22.10
2023-07-10T02:56:23.991Z,22.00
2023-07-10T02:58:51.982Z,22.00
2023-07-10T03:01:19.219Z,22.00
2023-07-10T03:03:48.037Z,22.00
2023-07-10T03:06:16.810Z,22.00
2023-07-10T03:08:44.326Z,22.00
2023-07-10T03:11:14.089Z,22.00
2023-07-10T03:13:41.328Z,22.00
2023-07-10T03:16:11.648Z,22.00
2023-07-10T03:18:39.760Z,22.00
2023-07-10T03:21:08.843Z,22.00
2023-07-10T03:23:36.299Z,22.00
2023-07-10T03:26:03.941Z,22.00
2023-07-10T03:28:36.332Z,22.00
2023-07-10T03:31:03.573Z,22.00
2023-07-10T03:33:30.735Z,22.00
2023-07-10T03:36:03.450Z,22.00
2023-07-10T03:38:30.943Z,22.10
2023-07-10T03:40:59.171Z,22.10
2023-07-10T03:43:28.323Z,22.20
2023-07-10T03:45:56.949Z,22.20
2023-07-10T03:48:24.423Z,22.20
2023-07-10T03:50:51.940Z,22.30
2023-07-10T03:53:19.045Z,22.30
2023-07-10T03:55:54.224Z,22.40
2023-07-10T03:58:31.726Z,22.40
2023-07-10T04:01:01.281Z,22.60
2023-07-10T04:03:32.134Z,22.70
2023-07-10T04:05:59.709Z,22.90
2023-07-10T04:08:30.013Z,23.10
2023-07-10T04:10:59.497Z,23.30
2023-07-10T04:13:27.095Z,23.40
2023-07-10T04:16:01.219Z,23.60
2023-07-10T04:18:31.168Z,23.70
2023-07-10T04:20:59.896Z,23.80
2023-07-10T04:23:27.326Z,23.80
2023-07-10T04:25:54.615Z,23.80
2023-07-10T04:28:21.867Z,23.70
2023-07-10T04:30:49.664Z,23.60
2023-07-10T04:33:17.487Z,23.60
2023-07-10T04:35:54.231Z,23.60
2023-07-10T04:38:24.789Z,23.50
2023-07-10T04:40:53.898Z,23.50
2023-07-10T04:43:21.194Z,23.40
2023-07-10T04:45:48.313Z,23.50
2023-07-10T04:48:15.621Z,23.50
2023-07-10T04:50:48.547Z,23.60
2023-07-10T04:53:19.703Z,23.60
2023-07-10T04:55:49.245Z,23.70
2023-07-10T04:58:17.120Z,23.70
2023-07-10T05:00:44.496Z,23.70
2023-07-10T05:03:11.804Z,23.80
2023-07-10T05:05:39.127Z,24.00
2023-07-10T05:08:06.243Z,24.10
2023-07-10T05:10:33.379Z,24.40
2023-07-10T05:13:00.608Z,24.50
2023-07-10T05:15:27.968Z,24.60
2023-07-10T05:17:55.101Z,24.80
2023-07-10T05:20:22.340Z,24.80
2023-07-10T05:22:49.486Z,25.00
2023-07-10T05:25:16.849Z,25.10
2023-07-10T05:27:44.041Z,25.20
2023-07-10T05:30:11.505Z,25.30
2023-07-10T05:32:38.624Z,25.30
2023-07-10T05:35:06.287Z,25.30
2023-07-10T05:37:33.369Z,25.30
2023-07-10T05:40:00.601Z,25.30
2023-07-10T05:42:27.751Z,25.20
2023-07-10T05:44:54.878Z,25.10
2023-07-10T05:47:22.034Z,25.10
2023-07-10T05:49:49.102Z,25.10
2023-07-10T05:52:16.209Z,25.20
2023-07-10T05:54:43.353Z,25.30
2023-07-10T05:57:10.604Z,25.40
2023-07-10T05:59:37.665Z,25.50
2023-07-10T06:02:05.336Z,25.50
2023-07-10T06:04:32.674Z,25.60
2023-07-10T06:07:00.061Z,25.70
2023-07-10T06:09:27.285Z,25.90
2023-07-10T06:11:57.020Z,26.00
2023-07-10T06:14:24.476Z,26.00
2023-07-10T06:16:52.220Z,26.10
2023-07-10T06:19:20.055Z,26.20
2023-07-10T06:21:47.781Z,26.30
2023-07-10T06:24:16.003Z,26.40
2023-07-10T06:26:43.312Z,26.60
2023-07-10T06:29:10.413Z,26.70
2023-07-10T06:31:37.594Z,26.80
2023-07-10T06:34:04.756Z,26.90
2023-07-10T06:36:31.866Z,27.00
2023-07-10T06:38:58.957Z,27.10
2023-07-10T06:41:29.053Z,27.20
2023-07-10T06:43:57.708Z,27.40
2023-07-10T06:46:26.432Z,27.40
2023-07-10T06:48:53.621Z,27.50
2023-07-10T06:51:20.737Z,27.50
2023-07-10T06:53:49.011Z,27.60
2023-07-10T06:56:17.674Z,27.60
2023-07-10T06:58:44.837Z,27.60
2023-07-10T07:01:13.489Z,27.60
2023-07-10T07:03:42.196Z,27.60
2023-07-10T07:06:09.493Z,27.70
2023-07-10T07:08:37.603Z,27.60
2023-07-10T07:11:05.713Z,27.70
2023-07-10T07:13:32.859Z,27.70
2023-07-10T07:16:00.238Z,27.80
2023-07-10T07:18:29.529Z,27.80
2023-07-10T07:20:57.179Z,27.80
2023-07-10T07:23:24.850Z,27.90
2023-07-10T07:25:57.277Z,28.00
2023-07-10T07:28:24.802Z,28.10
2023-07-10T07:30:52.044Z,28.30
2023-07-10T07:33:20.667Z,28.40
2023-07-10T07:35:48.755Z,28.50
2023-07-10T07:38:16.650Z,28.50
2023-07-10T07:40:43.995Z,28.60
2023-07-10T07:43:11.340Z,28.70
2023-07-10T07:45:38.700Z,28.60
2023-07-10T07:48:06.097Z,28.70
2023-07-10T07:50:33.529Z,28.70
2023-07-10T07:53:00.873Z,28.80
2023-07-10T07:55:28.601Z,28.90
2023-07-10T07:57:55.815Z,29.00
2023-07-10T08:00:24.066Z,29.10
2023-07-10T08:02:53.334Z,29.20
2023-07-10T08:05:34.420Z,29.30
2023-07-10T08:08:08.144Z,29.40
2023-07-10T08:10:36.993Z,29.50
2023-07-10T08:13:05.586Z,29.50
2023-07-10T08:15:33.068Z,29.60
2023-07-10T08:18:01.824Z,29.60
2023-07-10T08:20:29.428Z,29.70
2023-07-10T08:22:56.626Z,29.80
2023-07-10T08:25:23.901Z,29.90
2023-07-10T08:27:51.132Z,29.90
2023-07-10T08:30:18.359Z,30.00
2023-07-10T08:32:45.572Z,30.20
2023-07-10T08:35:12.857Z,30.20
2023-07-10T08:37:40.030Z,30.30
2023-07-10T08:40:12.393Z,30.30
2023-07-10T08:42:40.089Z,30.40
2023-07-10T08:45:16.254Z,30.40
2023-07-10T08:47:49.714Z,30.50
2023-07-10T08:50:30.286Z,30.50
2023-07-10T08:53:09.083Z,30.60
2023-07-10T08:55:46.314Z,30.60
2023-07-10T08:58:26.826Z,30.60
2023-07-10T09:00:58.299Z,30.70
2023-07-10T09:03:45.747Z,30.80
2023-07-10T09:06:22.465Z,30.80
2023-07-10T09:08:53.709Z,30.90
2023-07-10T09:11:21.425Z,31.00
2023-07-10T09:13:55.561Z,31.00
2023-07-10T09:16:22.965Z,31.10
2023-07-10T09:18:57.789Z,31.20
2023-07-10T09:21:30.768Z,31.30
2023-07-10T09:23:57.966Z,31.40
2023-07-10T09:26:39.286Z,31.50
2023-07-10T09:29:12.672Z,31.50
2023-07-10T09:31:50.795Z,31.60
2023-07-10T09:34:28.433Z,31.80
2023-07-10T09:36:57.843Z,31.90
2023-07-10T09:39:28.060Z,32.10
2023-07-10T09:42:02.068Z,32.20
2023-07-10T09:44:45.795Z,32.30
2023-07-10T09:47:15.601Z,32.30
2023-07-10T09:49:47.728Z,32.50
2023-07-10T09:52:38.249Z,32.60
2023-07-10T09:55:08.151Z,32.70
2023-07-10T09:57:57.015Z,32.90
2023-07-10T10:00:25.331Z,33.00
2023-07-10T10:03:03.284Z,33.40
2023-07-10T10:05:31.461Z,33.60
2023-07-10T10:08:17.452Z,33.80
2023-07-10T10:10:44.729Z,33.80
2023-07-10T10:13:30.410Z,33.90
2023-07-10T10:16:35.372Z,34.00
2023-07-10T10:19:28.107Z,34.10
2023-07-10T10:21:56.591Z,34.30
2023-07-10T10:24:26.426Z,34.40
2023-07-10T10:27:18.140Z,34.40
2023-07-10T10:29:48.477Z,34.50
2023-07-10T10:32:29.114Z,34.40
2023-07-10T10:35:19.736Z,34.30
2023-07-10T10:38:08.143Z,34.20
2023-07-10T10:40:40.509Z,34.10
2023-07-10T10:43:26.432Z,34.00
2023-07-10T10:46:01.838Z,34.00
2023-07-10T10:48:38.304Z,34.00
2023-07-10T10:51:33.301Z,34.00
2023-07-10T10:54:19.741Z,33.90
2023-07-10T10:57:13.435Z,33.90
2023-07-10T10:59:47.072Z,34.00
2023-07-10T11:02:48.963Z,34.00
2023-07-10T11:05:20.804Z,34.10
2023-07-10T11:07:55.968Z,34.20
2023-07-10T11:10:38.724Z,34.20
2023-07-10T11:13:07.029Z,34.30
2023-07-10T11:15:35.530Z,34.40
2023-07-10T11:18:03.107Z,34.40
2023-07-10T11:20:30.506Z,34.40
2023-07-10T11:23:05.371Z,34.40
2023-07-10T11:25:39.829Z,34.40
2023-07-10T11:28:21.810Z,34.50
2023-07-10T11:31:12.446Z,34.60
2023-07-10T11:33:39.640Z,34.70
2023-07-10T11:36:17.116Z,34.70
2023-07-10T11:38:57.496Z,34.80
2023-07-10T11:41:37.021Z,34.90
2023-07-10T11:44:34.303Z,35.00
2023-07-10T11:47:17.957Z,35.20
2023-07-10T11:49:52.266Z,35.30
2023-07-10T11:52:22.279Z,35.40
2023-07-10T11:54:49.432Z,35.50
2023-07-10T11:57:27.048Z,35.50
2023-07-10T12:00:14.939Z,35.50
2023-07-10T12:02:50.566Z,35.50
2023-07-10T12:05:51.312Z,35.50
2023-07-10T12:08:18.832Z,35.60
2023-07-10T12:10:48.263Z,35.70
2023-07-10T12:13:31.570Z,35.80
2023-07-10T12:16:26.836Z,35.70
2023-07-10T12:19:12.665Z,35.60
2023-07-10T12:21:39.937Z,35.60
2023-07-10T12:24:14.223Z,35.60
2023-07-10T12:29:15.925Z,35.80
2023-07-10T12:31:43.704Z,35.90
2023-07-10T12:34:25.149Z,36.10
2023-07-10T12:36:54.697Z,36.20
2023-07-10T12:39:22.963Z,36.30
2023-07-10T12:41:54.430Z,36.30
2023-07-10T12:44:24.616Z,36.40
2023-07-10T12:47:14.966Z,36.40
2023-07-10T12:49:53.057Z,36.50
2023-07-10T12:52:27.502Z,36.50
2023-07-10T12:54:56.126Z,36.60
2023-07-10T12:57:34.243Z,36.80
2023-07-10T13:00:09.392Z,36.90
2023-07-10T13:02:51.595Z,37.10
2023-07-10T13:05:30.421Z,37.20
2023-07-10T13:07:59.451Z,37.30
2023-07-10T13:10:46.276Z,37.60
2023-07-10T13:13:22.479Z,38.00
2023-07-10T13:15:50.202Z,38.20
2023-07-10T13:18:24.766Z,38.20
2023-07-10T13:20:54.363Z,38.00
2023-07-10T13:23:21.509Z,37.80
2023-07-10T13:25:48.846Z,37.60
2023-07-10T13:28:30.176Z,37.40
2023-07-10T13:31:06.958Z,37.30
2023-07-10T13:33:34.328Z,37.20
2023-07-10T13:36:01.711Z,37.30
2023-07-10T13:38:29.755Z,37.30
2023-07-10T13:40:56.846Z,37.30
2023-07-10T13:43:34.806Z,37.20
2023-07-10T13:46:15.757Z,37.20
2023-07-10T13:48:43.884Z,37.20
2023-07-10T13:51:14.157Z,37.20
2023-07-10T13:53:43.927Z,37.20
2023-07-10T13:56:24.854Z,37.20
2023-07-10T13:58:53.770Z,37.20
2023-07-10T14:01:22.129Z,37.30
2023-07-10T14:03:50.093Z,37.50
2023-07-10T14:06:20.295Z,37.80
2023-07-10T14:08:48.250Z,37.80
2023-07-10T14:11:16.032Z,37.80
2023-07-10T14:13:43.260Z,37.80
2023-07-10T14:16:36.703Z,37.80
2023-07-10T14:21:33.958Z,37.60
2023-07-10T14:24:01.077Z,37.50
2023-07-10T14:26:29.938Z,37.30
2023-07-10T14:29:00.434Z,37.10
2023-07-10T14:31:29.545Z,36.90
2023-07-10T14:33:56.877Z,36.60
2023-07-10T14:36:28.864Z,36.30
2023-07-10T14:38:56.036Z,36.10
2023-07-10T14:41:25.355Z,35.60
2023-07-10T14:43:53.365Z,34.90
2023-07-10T14:46:36.506Z,34.30
2023-07-10T14:49:15.346Z,33.80
2023-07-10T14:51:43.567Z,33.40
2023-07-10T14:54:14.691Z,33.10
2023-07-10T14:56:43.494Z,32.80
2023-07-10T14:59:15.099Z,32.70
2023-07-10T15:01:42.824Z,32.60
2023-07-10T15:04:10.379Z,32.50
2023-07-10T15:06:43.414Z,32.40
2023-07-10T15:09:15.534Z,32.20
2023-07-10T15:11:43.488Z,32.10
2023-07-10T15:14:15.607Z,31.90
2023-07-10T15:16:45.504Z,31.80
2023-07-10T15:19:19.367Z,31.50
2023-07-10T15:21:46.898Z,31.40
2023-07-10T15:24:24.129Z,31.20
2023-07-10T15:26:53.709Z,31.20
2023-07-10T15:29:21.473Z,31.00
2023-07-10T15:32:10.304Z,31.00
2023-07-10T15:34:38.667Z,31.00
2023-07-10T15:37:08.532Z,31.00
2023-07-10T15:39:36.372Z,30.90
2023-07-10T15:42:06.151Z,31.00
2023-07-10T15:44:33.220Z,30.90
2023-07-10T15:47:00.572Z,31.00
2023-07-10T15:49:27.992Z,31.10
2023-07-10T15:51:56.040Z,31.10
2023-07-10T15:54:24.159Z,31.20
2023-07-10T15:56:51.748Z,31.30
2023-07-10T15:59:21.263Z,31.30
2023-07-10T16:01:50.612Z,31.20
2023-07-10T16:04:20.527Z,31.20
2023-07-10T16:06:47.758Z,31.10
2023-07-10T16:09:15.622Z,30.90
2023-07-10T16:11:42.912Z,30.80
2023-07-10T16:14:15.730Z,30.70
2023-07-10T16:16:44.786Z,30.50
2023-07-10T16:19:13.046Z,30.40
2023-07-10T16:21:46.283Z,30.30
2023-07-10T16:24:16.341Z,30.40
2023-07-10T16:26:44.395Z,30.40
2023-07-10T16:29:12.754Z,30.50
2023-07-10T16:31:41.849Z,30.40
2023-07-10T16:34:20.278Z,30.30
2023-07-10T16:36:48.924Z,30.20
2023-07-10T16:39:16.455Z,30.20
2023-07-10T16:41:43.610Z,30.10
2023-07-10T16:44:14.690Z,30.10
2023-07-10T16:46:42.465Z,30.10
2023-07-10T16:49:09.859Z,30.00
2023-07-10T16:51:36.995Z,30.00
2023-07-10T16:54:04.561Z,30.00
2023-07-10T16:56:31.761Z,30.00
2023-07-10T16:58:58.970Z,29.90
2023-07-10T17:01:32.325Z,29.90
2023-07-10T17:04:02.034Z,29.90
2023-07-10T17:06:33.635Z,29.80
2023-07-10T17:09:01.536Z,29.70
2023-07-10T17:11:33.175Z,29.70
2023-07-10T17:14:00.893Z,29.70
2023-07-10T17:16:28.545Z,29.70
2023-07-10T17:18:55.858Z,29.60
2023-07-10T17:21:23.199Z,29.50
2023-07-10T17:23:50.391Z,29.50
2023-07-10T17:26:19.919Z,29.40
2023-07-10T17:28:48.260Z,29.40
2023-07-10T17:31:36.116Z,29.40
2023-07-10T17:34:06.138Z,29.30
2023-07-10T17:36:33.474Z,29.20
2023-07-10T17:39:12.879Z,29.20
2023-07-10T17:41:51.425Z,29.10
2023-07-10T17:44:26.457Z,29.00
2023-07-10T17:46:54.344Z,28.90
2023-07-10T17:49:21.849Z,28.90
2023-07-10T17:51:49.828Z,28.80
2023-07-10T17:54:25.690Z,28.80
2023-07-10T17:56:54.292Z,28.80
2023-07-10T17:59:21.551Z,28.80
2023-07-10T18:01:49.141Z,28.80
2023-07-10T18:04:24.481Z,28.70
2023-07-10T18:06:52.265Z,28.70
2023-07-10T18:09:25.541Z,28.60
2023-07-10T18:11:56.460Z,28.60
2023-07-10T18:14:24.058Z,28.60
2023-07-10T18:16:52.032Z,28.60
2023-07-10T18:19:20.383Z,28.50
2023-07-10T18:21:50.695Z,28.50
2023-07-10T18:24:24.229Z,28.50
2023-07-10T18:26:55.156Z,28.40
2023-07-10T18:29:22.435Z,28.30
2023-07-10T18:31:50.890Z,28.30
2023-07-10T18:34:20.678Z,28.20
2023-07-10T18:36:49.216Z,28.20
2023-07-10T18:39:17.245Z,28.10
2023-07-10T18:41:44.660Z,28.10
2023-07-10T18:44:17.144Z,28.00
2023-07-10T18:46:46.073Z,27.90
2023-07-10T18:49:16.758Z,27.90
2023-07-10T18:51:46.503Z,27.80
2023-07-10T18:54:17.299Z,27.80
2023-07-10T18:56:44.595Z,27.70
2023-07-10T18:59:26.201Z,27.70
2023-07-10T19:01:55.454Z,27.60
2023-07-10T19:04:30.857Z,27.60
2023-07-10T19:06:58.048Z,27.60
2023-07-10T19:09:28.570Z,27.50
2023-07-10T19:11:57.478Z,27.50
2023-07-10T19:14:26.768Z,27.50
2023-07-10T19:16:57.875Z,27.40
2023-07-10T19:19:29.296Z,27.40
2023-07-10T19:21:56.644Z,27.40
2023-07-10T19:24:26.683Z,27.40
2023-07-10T19:26:54.481Z,27.40
2023-07-10T19:29:21.934Z,27.40
2023-07-10T19:31:55.934Z,27.40
2023-07-10T19:34:24.082Z,27.40
2023-07-10T19:36:52.183Z,27.40
2023-07-10T19:39:21.281Z,27.40
2023-07-10T19:41:48.789Z,27.40
2023-07-10T19:44:19.369Z,27.40
2023-07-10T19:46:48.414Z,27.30
2023-07-10T19:49:28.630Z,27.30
2023-07-10T19:51:55.869Z,27.20
2023-07-10T19:54:24.686Z,27.20
2023-07-10T19:56:52.524Z,27.10
2023-07-10T19:59:21.560Z,27.10
2023-07-10T20:01:51.113Z,27.00
2023-07-10T20:04:19.072Z,26.90
2023-07-10T20:06:46.551Z,26.80
2023-07-10T20:09:21.581Z,26.80
2023-07-10T20:11:49.431Z,26.70
2023-07-10T20:14:17.960Z,26.70
2023-07-10T20:16:50.405Z,26.60
2023-07-10T20:19:25.645Z,26.60
2023-07-10T20:21:54.061Z,26.50
2023-07-10T20:24:21.944Z,26.40
2023-07-10T20:26:49.666Z,26.40
2023-07-10T20:29:19.889Z,26.40
2023-07-10T20:31:48.912Z,26.30
2023-07-10T20:34:16.889Z,26.30
2023-07-10T20:36:45.527Z,26.30
2023-07-10T20:39:15.195Z,26.30
2023-07-10T20:41:43.105Z,26.20
2023-07-10T20:44:15.354Z,26.20
2023-07-10T20:46:49.808Z,26.20
2023-07-10T20:49:19.676Z,26.20
2023-07-10T20:51:47.759Z,26.10
2023-07-10T20:54:18.099Z,26.20
2023-07-10T20:56:49.315Z,26.10
2023-07-10T20:59:28.807Z,26.10
2023-07-10T21:01:58.006Z,26.10
2023-07-10T21:04:25.234Z,26.00
2023-07-10T21:07:13.243Z,26.00
2023-07-10T21:09:40.264Z,25.90
2023-07-10T21:12:15.841Z,25.80
2023-07-10T21:14:43.235Z,25.80
2023-07-10T21:17:16.258Z,25.80
2023-07-10T21:19:45.453Z,25.70
2023-07-10T21:22:17.502Z,25.70
2023-07-10T21:24:48.467Z,25.70
2023-07-10T21:27:23.549Z,25.60
2023-07-10T21:29:51.580Z,25.60
2023-07-10T21:32:22.975Z,25.60
2023-07-10T21:34:51.488Z,25.50
2023-07-10T21:37:18.882Z,25.50
2023-07-10T21:39:46.710Z,25.50
2023-07-10T21:42:19.998Z,25.50
2023-07-10T21:44:47.449Z,25.40
2023-07-10T21:47:15.171Z,25.40
2023-07-10T21:49:42.345Z,25.40
2023-07-10T21:52:10.481Z,25.30
2023-07-10T21:54:37.576Z,25.30
2023-07-10T21:57:05.263Z,25.30
2023-07-10T21:59:37.052Z,25.30
2023-07-10T22:02:04.485Z,25.30
2023-07-10T22:04:31.658Z,25.20
2023-07-10T22:06:58.762Z,25.20
2023-07-10T22:09:25.835Z,25.20
2023-07-10T22:11:52.956Z,25.10
2023-07-10T22:14:20.235Z,25.10
2023-07-10T22:16:48.607Z,25.10
2023-07-10T22:19:18.835Z,25.10
2023-07-10T22:21:47.526Z,25.10
2023-07-10T22:24:21.720Z,25.10
2023-07-10T22:26:48.869Z,25.10
2023-07-10T22:29:17.295Z,25.10
2023-07-10T22:31:45.286Z,25.10
2023-07-10T22:34:13.293Z,25.00
2023-07-10T22:36:40.534Z,25.00
2023-07-10T22:39:07.630Z,25.00
2023-07-10T22:41:36.048Z,25.00
2023-07-10T22:44:07.447Z,24.90
2023-07-10T22:46:39.180Z,24.90
2023-07-10T22:49:08.656Z,24.90
2023-07-10T22:51:37.066Z,24.90
2023-07-10T22:54:05.295Z,24.80
2023-07-10T22:56:43.309Z,24.90
2023-07-10T22:59:16.123Z,24.90
2023-07-10T23:01:44.699Z,24.80
2023-07-10T23:04:12.958Z,24.80
2023-07-10T23:06:40.777Z,24.80
2023-07-10T23:09:11.824Z,24.80
2023-07-10T23:11:39.119Z,24.70
2023-07-10T23:14:07.570Z,24.80
2023-07-10T23:16:35.325Z,24.70
2023-07-10T23:19:03.078Z,24.70
2023-07-10T23:21:30.329Z,24.80
2023-07-10T23:23:57.556Z,24.80
2023-07-10T23:26:25.596Z,24.80
2023-07-10T23:28:53.513Z,24.70
2023-07-10T23:31:22.079Z,24.70
2023-07-10T23:33:52.167Z,24.60
2023-07-10T23:36:24.266Z,24.60
2023-07-10T23:38:52.727Z,24.50
2023-07-10T23:41:20.733Z,24.50
2023-07-10T23:43:48.360Z,24.40
2023-07-10T23:46:15.568Z,24.30
2023-07-10T23:48:43.804Z,24.20
2023-07-10T23:51:11.341Z,24.20
2023-07-10T23:53:38.833Z,24.00
2023-07-10T23:56:06.909Z,24.00
2023-07-10T23:58:34.227Z,23.90
